Dona, Louisiana
Current Conditions -  °F | °C
As of 2:56 AM on Thursday 23 Oct 2014 (Local Time) from KSHV Reporting Station
Overcast Overcast  
Wind Chill: 58°   Ceiling: 25000
Heat Index: 58°   Visibility: 10mi
Dew Point: 49°   Wind: 5mph
Humidity: 72%   Direction: 90°E
Pressure: 30.12"   Gusts: NA
Location:  32.117°N, 93.8044°W
Report Text: KSHV 230756Z 09004KT 10SM OVC250 14/09 A3012 RMK AO2 SLP197 T01440094
Loading
Personal Weather Stations






























Interactive Weather Map
Tropical Storm Tracking
New forecast layout! Learn more

10-Day Weather Forecast

Advertisements
Track Severe Weather on mobile